createdAt,value
2022-07-26T00:00:45.127Z,49.37
2022-07-26T00:03:17.473Z,49.48
2022-07-26T00:05:49.818Z,49.72
2022-07-26T00:08:22.424Z,49.86
2022-07-26T00:10:54.694Z,50.08
2022-07-26T00:13:30.118Z,50.25
2022-07-26T00:16:03.103Z,50.55
2022-07-26T00:18:35.783Z,50.80
2022-07-26T00:21:08.751Z,51.04
2022-07-26T00:23:41.297Z,51.24
2022-07-26T00:26:13.306Z,51.33
2022-07-26T00:28:45.637Z,51.56
2022-07-26T00:31:17.856Z,51.56
2022-07-26T00:33:50.680Z,51.62
2022-07-26T00:36:23.007Z,51.76
2022-07-26T00:38:56.742Z,51.78
2022-07-26T00:41:28.899Z,52.00
2022-07-26T00:44:01.836Z,52.23
2022-07-26T00:46:34.371Z,52.34
2022-07-26T00:49:07.088Z,52.53
2022-07-26T00:51:39.433Z,52.59
2022-07-26T00:54:11.829Z,52.60
2022-07-26T00:56:43.761Z,52.90
2022-07-26T00:59:17.864Z,53.13
2022-07-26T01:01:49.889Z,53.40
2022-07-26T01:04:22.322Z,53.40
2022-07-26T01:06:55.878Z,53.43
2022-07-26T01:09:28.174Z,53.55
2022-07-26T01:12:00.790Z,53.69
2022-07-26T01:14:32.817Z,54.02
2022-07-26T01:17:05.472Z,54.10
2022-07-26T01:19:37.460Z,54.05
2022-07-26T01:22:14.368Z,54.25
2022-07-26T01:24:48.664Z,54.33
2022-07-26T01:27:21.266Z,54.55
2022-07-26T01:29:53.751Z,54.78
2022-07-26T01:32:26.504Z,55.02
2022-07-26T01:34:58.471Z,55.01
2022-07-26T01:37:30.763Z,55.17
2022-07-26T01:40:07.246Z,55.23
2022-07-26T01:42:41.304Z,55.33
2022-07-26T01:45:14.745Z,55.31
2022-07-26T01:47:50.280Z,55.28
2022-07-26T01:50:22.327Z,55.29
2022-07-26T01:52:54.396Z,55.36
2022-07-26T01:55:26.779Z,55.46
2022-07-26T01:57:58.926Z,55.61
2022-07-26T02:00:32.014Z,55.67
2022-07-26T02:03:04.802Z,55.85
2022-07-26T02:05:37.353Z,55.90
2022-07-26T02:08:09.686Z,56.03
2022-07-26T02:11:00.585Z,55.89
2022-07-26T02:13:37.658Z,56.24
2022-07-26T02:16:13.578Z,56.26
2022-07-26T02:18:45.938Z,56.42
2022-07-26T02:21:18.764Z,56.58
2022-07-26T02:23:50.975Z,56.71
2022-07-26T02:26:23.469Z,56.65
2022-07-26T02:28:55.586Z,56.68
2022-07-26T02:31:32.373Z,56.78
2022-07-26T02:34:05.627Z,56.81
2022-07-26T02:36:39.929Z,56.83
2022-07-26T02:39:12.538Z,56.87
2022-07-26T02:41:45.154Z,56.93
2022-07-26T02:44:17.161Z,57.12
2022-07-26T02:46:49.480Z,57.21
2022-07-26T02:49:23.654Z,57.08
2022-07-26T02:51:56.330Z,57.26
2022-07-26T02:54:28.291Z,57.42
2022-07-26T02:57:00.767Z,57.55
2022-07-26T02:59:32.953Z,57.54
2022-07-26T03:02:05.422Z,57.60
2022-07-26T03:04:38.141Z,57.62
2022-07-26T03:07:10.427Z,57.69
2022-07-26T03:09:42.752Z,57.72
2022-07-26T03:12:14.940Z,57.81
2022-07-26T03:14:47.339Z,57.92
2022-07-26T03:17:21.000Z,58.08
2022-07-26T03:19:53.638Z,58.01
2022-07-26T03:22:26.238Z,57.99
2022-07-26T03:24:58.411Z,58.16
2022-07-26T03:27:30.611Z,58.19
2022-07-26T03:30:02.828Z,58.16
2022-07-26T03:32:35.133Z,58.10
2022-07-26T03:35:09.452Z,58.12
2022-07-26T03:37:45.675Z,58.14
2022-07-26T03:40:20.058Z,58.03
2022-07-26T03:42:52.768Z,58.02
2022-07-26T03:45:25.670Z,58.06
2022-07-26T03:47:57.827Z,57.90
2022-07-26T03:50:30.277Z,57.89
2022-07-26T03:53:03.083Z,57.80
2022-07-26T03:55:53.096Z,57.79
2022-07-26T03:58:25.263Z,57.74
2022-07-26T04:00:57.989Z,57.55
2022-07-26T04:03:30.224Z,57.30
2022-07-26T04:06:03.555Z,57.00
2022-07-26T04:08:38.050Z,56.77
2022-07-26T04:11:10.954Z,56.72
2022-07-26T04:13:42.978Z,56.70
2022-07-26T04:16:15.600Z,56.40
2022-07-26T04:18:47.694Z,56.30
2022-07-26T04:21:20.129Z,56.21
2022-07-26T04:23:52.878Z,56.18
2022-07-26T04:26:25.963Z,56.00
2022-07-26T04:29:01.107Z,55.89
2022-07-26T04:31:36.103Z,55.76
2022-07-26T04:34:10.673Z,55.57
2022-07-26T04:36:43.791Z,55.57
2022-07-26T04:39:24.550Z,55.40
2022-07-26T04:41:56.698Z,55.31
2022-07-26T04:44:29.074Z,55.17
2022-07-26T04:47:01.039Z,55.03
2022-07-26T04:49:33.172Z,54.98
2022-07-26T04:52:05.938Z,54.81
2022-07-26T04:54:38.156Z,54.74
2022-07-26T04:57:10.726Z,54.67
2022-07-26T04:59:43.531Z,54.69
2022-07-26T05:02:16.114Z,54.70
2022-07-26T05:04:48.511Z,54.66
2022-07-26T05:07:21.421Z,54.14
2022-07-26T05:09:54.099Z,53.47
2022-07-26T05:12:26.214Z,52.86
2022-07-26T05:14:58.463Z,52.40
2022-07-26T05:17:30.916Z,52.08
2022-07-26T05:20:03.690Z,51.77
2022-07-26T05:22:36.005Z,51.50
2022-07-26T05:25:10.438Z,51.48
2022-07-26T05:27:42.928Z,51.45
2022-07-26T05:30:15.819Z,51.51
2022-07-26T05:32:48.074Z,51.44
2022-07-26T05:35:20.208Z,51.24
2022-07-26T05:37:54.317Z,51.19
2022-07-26T05:40:26.623Z,51.04
2022-07-26T05:42:59.505Z,51.13
2022-07-26T05:45:32.067Z,50.94
2022-07-26T05:48:08.418Z,50.63
2022-07-26T05:50:40.514Z,50.56
2022-07-26T05:53:12.863Z,50.30
2022-07-26T05:55:45.233Z,50.12
2022-07-26T05:58:17.756Z,49.86
2022-07-26T06:00:49.812Z,49.76
2022-07-26T06:03:25.190Z,49.54
2022-07-26T06:05:59.225Z,49.15
2022-07-26T06:08:33.650Z,49.12
2022-07-26T06:11:05.848Z,49.05
2022-07-26T06:13:38.223Z,49.16
2022-07-26T06:16:11.531Z,49.24
2022-07-26T06:18:43.879Z,49.45
2022-07-26T06:21:15.939Z,49.46
2022-07-26T06:23:49.723Z,49.35
2022-07-26T06:26:24.330Z,49.48
2022-07-26T06:28:56.496Z,49.35
2022-07-26T06:31:28.924Z,49.01
2022-07-26T06:34:02.170Z,49.20
2022-07-26T06:36:34.247Z,49.13
2022-07-26T06:39:06.777Z,49.26
2022-07-26T06:41:38.792Z,49.50
2022-07-26T06:44:11.656Z,49.64
2022-07-26T06:46:44.130Z,50.43
2022-07-26T06:49:20.575Z,51.73
2022-07-26T06:51:58.151Z,53.17
2022-07-26T06:54:30.336Z,53.64
2022-07-26T06:57:04.723Z,54.20
2022-07-26T06:59:37.977Z,55.09
2022-07-26T07:02:09.980Z,55.49
2022-07-26T07:04:42.012Z,56.60
2022-07-26T07:07:14.022Z,56.82
2022-07-26T07:09:47.229Z,57.41
2022-07-26T07:12:19.374Z,57.72
2022-07-26T07:14:51.414Z,57.60
2022-07-26T07:17:23.704Z,58.02
2022-07-26T07:19:55.759Z,58.11
2022-07-26T07:22:29.165Z,58.25
2022-07-26T07:25:03.030Z,59.00
2022-07-26T07:27:36.096Z,59.41
2022-07-26T07:30:11.020Z,60.34
2022-07-26T07:32:43.923Z,61.15
2022-07-26T07:35:16.954Z,62.23
2022-07-26T07:37:52.714Z,62.98
2022-07-26T07:40:27.254Z,63.49
2022-07-26T07:43:03.124Z,64.13
2022-07-26T07:45:36.333Z,65.28
2022-07-26T07:48:09.789Z,65.07
2022-07-26T07:50:42.156Z,66.39
2022-07-26T07:53:14.315Z,66.23
2022-07-26T07:55:47.056Z,66.39
2022-07-26T07:58:21.027Z,66.17
2022-07-26T08:00:53.217Z,66.89
2022-07-26T08:03:25.594Z,66.53
2022-07-26T08:06:12.034Z,67.76
2022-07-26T08:08:44.451Z,68.40
2022-07-26T08:11:16.913Z,68.33
2022-07-26T08:13:49.191Z,70.29
2022-07-26T08:16:21.672Z,70.44
2022-07-26T08:19:08.696Z,70.01
2022-07-26T08:21:41.012Z,71.90
2022-07-26T08:24:14.767Z,72.81
2022-07-26T08:26:46.723Z,72.17
2022-07-26T08:29:19.120Z,72.26
2022-07-26T08:31:53.276Z,74.44
2022-07-26T08:34:26.300Z,75.11
2022-07-26T08:37:15.901Z,76.27
2022-07-26T08:39:50.622Z,76.17
2022-07-26T08:42:24.361Z,78.42
2022-07-26T08:44:57.845Z,78.62
2022-07-26T08:47:37.497Z,78.48
2022-07-26T08:50:12.757Z,77.88
2022-07-26T08:52:45.584Z,79.01
2022-07-26T08:55:21.307Z,79.83
2022-07-26T08:57:53.371Z,79.97
2022-07-26T09:00:29.850Z,79.80
2022-07-26T09:03:05.837Z,79.88
2022-07-26T09:05:40.295Z,78.95
2022-07-26T09:08:26.545Z,78.45
2022-07-26T09:11:00.159Z,78.44
2022-07-26T09:13:53.710Z,78.18
2022-07-26T09:16:26.072Z,78.48
2022-07-26T09:19:17.780Z,78.34
2022-07-26T09:21:50.697Z,78.80
2022-07-26T09:24:34.954Z,79.67
2022-07-26T09:27:09.665Z,79.52
2022-07-26T09:29:49.735Z,79.33
2022-07-26T09:32:23.460Z,78.67
2022-07-26T09:34:58.738Z,78.26
2022-07-26T09:37:39.636Z,78.17
2022-07-26T09:40:15.203Z,78.07
2022-07-26T09:43:00.265Z,77.59
2022-07-26T09:45:34.265Z,76.86
2022-07-26T09:48:07.787Z,75.84
2022-07-26T09:50:40.368Z,74.37
2022-07-26T09:53:14.372Z,72.86
2022-07-26T09:55:58.696Z,72.05
2022-07-26T09:58:30.991Z,71.25
2022-07-26T10:01:06.605Z,70.90
2022-07-26T10:03:38.913Z,71.31
2022-07-26T10:06:12.763Z,71.38
2022-07-26T10:08:46.352Z,72.06
2022-07-26T10:11:18.865Z,72.57
2022-07-26T10:13:51.146Z,72.86
2022-07-26T10:16:36.654Z,72.92
2022-07-26T10:19:10.586Z,73.24
2022-07-26T10:21:44.338Z,73.35
2022-07-26T10:24:28.823Z,73.92
2022-07-26T10:27:03.205Z,74.24
2022-07-26T10:29:37.421Z,74.57
2022-07-26T10:32:21.492Z,75.45
2022-07-26T10:34:53.873Z,75.53
2022-07-26T10:37:28.229Z,76.10
2022-07-26T10:40:22.731Z,76.38
2022-07-26T10:42:55.639Z,76.14
2022-07-26T10:45:29.216Z,76.32
2022-07-26T10:48:16.693Z,76.69
2022-07-26T10:50:50.707Z,77.66
2022-07-26T10:53:24.645Z,78.73
2022-07-26T10:56:01.503Z,79.31
2022-07-26T10:58:44.532Z,79.70
2022-07-26T11:01:16.516Z,80.18
2022-07-26T11:03:48.949Z,80.82
2022-07-26T11:06:22.183Z,80.97
2022-07-26T11:08:56.059Z,81.58
2022-07-26T11:11:33.351Z,81.88
2022-07-26T11:14:11.341Z,82.60
2022-07-26T11:16:45.718Z,82.93
2022-07-26T11:19:19.555Z,83.54
2022-07-26T11:21:57.264Z,84.06
2022-07-26T11:24:29.643Z,85.59
2022-07-26T11:27:06.234Z,88.06
2022-07-26T11:29:41.127Z,87.80
2022-07-26T11:32:22.034Z,98.77
2022-07-26T11:35:02.392Z,100.00
2022-07-26T11:37:35.031Z,100.00
2022-07-26T11:40:09.186Z,100.00
2022-07-26T11:42:41.393Z,100.00
2022-07-26T11:45:14.328Z,100.00
2022-07-26T11:47:46.343Z,100.00
2022-07-26T11:50:22.925Z,100.00
2022-07-26T11:52:56.355Z,100.00
2022-07-26T11:55:34.275Z,100.00
2022-07-26T11:58:08.750Z,100.00
2022-07-26T12:00:41.831Z,100.00
2022-07-26T12:03:13.848Z,100.00
2022-07-26T12:05:46.492Z,100.00
2022-07-26T12:08:18.841Z,100.00
2022-07-26T12:10:57.750Z,100.00
2022-07-26T12:13:39.853Z,100.00
2022-07-26T12:16:46.487Z,100.00
2022-07-26T12:19:32.025Z,100.00
2022-07-26T12:22:13.527Z,100.00
2022-07-26T12:24:48.696Z,100.00
2022-07-26T12:27:22.170Z,100.00
2022-07-26T12:29:56.418Z,100.00
2022-07-26T12:32:35.905Z,100.00
2022-07-26T12:35:11.182Z,100.00
2022-07-26T12:37:53.791Z,100.00
2022-07-26T12:40:27.639Z,100.00
2022-07-26T12:43:04.658Z,100.00
2022-07-26T12:45:38.641Z,100.00
2022-07-26T12:48:14.502Z,100.00
2022-07-26T12:50:46.989Z,100.00
2022-07-26T12:53:19.020Z,100.00
2022-07-26T12:55:51.250Z,100.00
2022-07-26T12:58:24.316Z,100.00
2022-07-26T13:00:57.832Z,100.00
2022-07-26T13:03:30.245Z,100.00
2022-07-26T13:06:03.525Z,100.00
2022-07-26T13:08:35.690Z,100.00
2022-07-26T13:11:08.467Z,100.00
2022-07-26T13:13:40.976Z,100.00
2022-07-26T13:16:13.054Z,100.00
2022-07-26T13:18:45.273Z,99.98
2022-07-26T13:21:19.866Z,100.00
2022-07-26T13:23:51.930Z,100.00
2022-07-26T13:26:26.273Z,99.56
2022-07-26T13:29:00.561Z,98.78
2022-07-26T13:31:34.794Z,99.24
2022-07-26T13:34:07.167Z,99.29
2022-07-26T13:36:39.656Z,97.70
2022-07-26T13:39:12.172Z,98.56
2022-07-26T13:41:46.770Z,98.40
2022-07-26T13:44:19.645Z,98.15
2022-07-26T13:46:52.490Z,98.02
2022-07-26T13:49:24.880Z,97.49
2022-07-26T13:52:00.118Z,98.25
2022-07-26T13:54:34.902Z,95.52
2022-07-26T13:57:07.993Z,95.92
2022-07-26T13:59:40.269Z,96.03
2022-07-26T14:02:12.334Z,94.64
2022-07-26T14:04:45.561Z,92.60
2022-07-26T14:07:19.295Z,92.57
2022-07-26T14:09:51.493Z,92.59
2022-07-26T14:12:24.199Z,89.77
2022-07-26T14:14:56.446Z,90.90
2022-07-26T14:17:28.711Z,89.94
2022-07-26T14:20:00.869Z,90.44
2022-07-26T14:22:34.102Z,90.11
2022-07-26T14:25:08.377Z,90.10
2022-07-26T14:27:41.011Z,90.02
2022-07-26T14:30:15.478Z,90.35
2022-07-26T14:32:48.347Z,90.59
2022-07-26T14:35:20.534Z,89.75
2022-07-26T14:37:52.900Z,89.39
2022-07-26T14:40:25.601Z,89.59
2022-07-26T14:42:58.243Z,90.03
2022-07-26T14:45:32.051Z,89.87
2022-07-26T14:48:05.934Z,89.46
2022-07-26T14:51:07.154Z,89.80
2022-07-26T14:53:31.263Z,89.35
2022-07-26T14:56:06.120Z,89.67
2022-07-26T14:58:39.355Z,90.24
2022-07-26T15:01:11.728Z,90.27
2022-07-26T15:03:43.887Z,90.72
2022-07-26T15:06:16.608Z,90.55
2022-07-26T15:08:49.751Z,90.46
2022-07-26T15:11:21.886Z,90.70
2022-07-26T15:13:54.602Z,90.63
2022-07-26T15:16:26.688Z,90.54
2022-07-26T15:19:00.429Z,90.83
2022-07-26T15:21:32.605Z,91.02
2022-07-26T15:24:05.268Z,91.01
2022-07-26T15:26:37.456Z,91.07
2022-07-26T15:29:10.114Z,90.58
2022-07-26T15:31:43.159Z,89.87
2022-07-26T15:34:15.929Z,90.06
2022-07-26T15:36:48.816Z,89.72
2022-07-26T15:39:21.083Z,89.49
2022-07-26T15:41:53.877Z,89.48
2022-07-26T15:44:28.872Z,89.31
2022-07-26T15:47:01.741Z,89.05
2022-07-26T15:49:40.476Z,88.50
2022-07-26T15:52:13.808Z,88.72
2022-07-26T15:54:46.482Z,88.21
2022-07-26T15:57:19.143Z,87.89
2022-07-26T15:59:51.736Z,86.85
2022-07-26T16:02:24.900Z,84.87
2022-07-26T16:04:57.717Z,82.75
2022-07-26T16:07:29.759Z,81.43
2022-07-26T16:10:02.896Z,79.90
2022-07-26T16:12:35.933Z,78.79
2022-07-26T16:15:11.091Z,77.88
2022-07-26T16:17:43.219Z,75.69
2022-07-26T16:20:16.519Z,75.17
2022-07-26T16:22:48.726Z,75.24
2022-07-26T16:25:20.905Z,75.65
2022-07-26T16:27:55.165Z,75.49
2022-07-26T16:30:27.605Z,75.41
2022-07-26T16:32:59.654Z,74.87
2022-07-26T16:35:32.080Z,74.77
2022-07-26T16:38:07.310Z,75.10
2022-07-26T16:40:39.886Z,75.01
2022-07-26T16:43:12.294Z,75.58
2022-07-26T16:45:46.057Z,75.91
2022-07-26T16:48:18.589Z,76.28
2022-07-26T16:50:50.821Z,76.30
2022-07-26T16:53:24.652Z,76.09
2022-07-26T16:55:57.002Z,76.04
2022-07-26T16:58:29.479Z,76.59
2022-07-26T17:01:03.388Z,76.75
2022-07-26T17:03:35.366Z,76.77
2022-07-26T17:06:07.848Z,76.67
2022-07-26T17:08:41.754Z,76.35
2022-07-26T17:11:13.981Z,75.88
2022-07-26T17:13:46.222Z,75.75
2022-07-26T17:16:24.237Z,75.61
2022-07-26T17:18:57.725Z,75.71
2022-07-26T17:21:29.991Z,75.86
2022-07-26T17:24:05.559Z,76.15
2022-07-26T17:26:38.216Z,76.25
2022-07-26T17:29:13.660Z,76.56
2022-07-26T17:31:46.854Z,76.74
2022-07-26T17:34:19.546Z,77.11
2022-07-26T17:37:00.019Z,77.50
2022-07-26T17:39:52.386Z,77.50
2022-07-26T17:42:26.022Z,77.98
2022-07-26T17:44:58.416Z,78.19
2022-07-26T17:47:31.032Z,78.57
2022-07-26T17:52:58.260Z,79.10
2022-07-26T17:55:32.439Z,79.30
2022-07-26T17:58:05.116Z,79.30
2022-07-26T18:00:39.364Z,79.48
2022-07-26T18:03:11.777Z,79.74
2022-07-26T18:05:44.558Z,79.94
2022-07-26T18:08:16.884Z,80.16
2022-07-26T18:10:51.224Z,80.48
2022-07-26T18:13:24.231Z,80.67
2022-07-26T18:15:57.082Z,80.77
2022-07-26T18:18:29.458Z,81.35
2022-07-26T18:21:03.897Z,81.61
2022-07-26T18:23:36.215Z,82.17
2022-07-26T18:26:09.425Z,82.38
2022-07-26T18:28:42.528Z,82.82
2022-07-26T18:31:21.667Z,83.25
2022-07-26T18:33:55.933Z,83.54
2022-07-26T18:36:28.587Z,83.89
2022-07-26T18:39:03.872Z,84.18
2022-07-26T18:41:36.111Z,84.55
2022-07-26T18:44:09.497Z,85.13
2022-07-26T18:46:44.960Z,85.21
2022-07-26T18:49:20.040Z,85.59
2022-07-26T18:51:53.410Z,86.07
2022-07-26T18:54:26.732Z,86.33
2022-07-26T18:56:58.875Z,86.76
2022-07-26T18:59:31.376Z,87.23
2022-07-26T19:02:04.091Z,87.71
2022-07-26T19:04:36.437Z,88.09
2022-07-26T19:07:11.417Z,88.66
2022-07-26T19:09:43.643Z,88.96
2022-07-26T19:12:15.746Z,89.32
2022-07-26T19:14:48.312Z,89.53
2022-07-26T19:17:22.882Z,89.81
2022-07-26T19:19:55.697Z,90.01
2022-07-26T19:22:30.538Z,90.29
2022-07-26T19:25:03.116Z,90.67
2022-07-26T19:27:35.254Z,90.97
2022-07-26T19:30:11.315Z,91.24
2022-07-26T19:32:43.565Z,91.40
2022-07-26T19:35:15.926Z,91.63
2022-07-26T19:37:48.684Z,91.88
2022-07-26T19:40:20.753Z,92.14
2022-07-26T19:42:53.187Z,92.43
2022-07-26T19:45:25.776Z,92.83
2022-07-26T19:47:58.162Z,93.04
2022-07-26T19:50:30.293Z,93.34
2022-07-26T19:53:02.712Z,93.51
2022-07-26T19:55:38.611Z,93.85
2022-07-26T19:58:11.261Z,93.99
2022-07-26T20:00:43.418Z,94.24
2022-07-26T20:03:17.065Z,94.48
2022-07-26T20:05:49.043Z,94.69
2022-07-26T20:08:21.237Z,94.80
2022-07-26T20:10:54.000Z,94.90
2022-07-26T20:13:26.208Z,95.11
2022-07-26T20:15:58.790Z,95.47
2022-07-26T20:18:31.552Z,95.74
2022-07-26T20:21:03.822Z,95.91
2022-07-26T20:23:36.959Z,96.09
2022-07-26T20:26:09.349Z,96.18
2022-07-26T20:28:42.109Z,96.65
2022-07-26T20:31:14.302Z,96.74
2022-07-26T20:33:46.551Z,96.82
2022-07-26T20:36:18.709Z,96.96
2022-07-26T20:38:51.752Z,97.23
2022-07-26T20:41:25.745Z,97.28
2022-07-26T20:43:58.036Z,97.51
2022-07-26T20:46:32.059Z,97.71
2022-07-26T20:49:06.940Z,97.88
2022-07-26T20:51:39.250Z,98.31
2022-07-26T20:54:12.313Z,98.31
2022-07-26T20:56:44.462Z,98.40
2022-07-26T20:59:17.095Z,98.66
2022-07-26T21:01:49.935Z,98.57
2022-07-26T21:04:22.247Z,98.71
2022-07-26T21:06:55.100Z,98.93
2022-07-26T21:09:30.566Z,98.84
2022-07-26T21:12:02.774Z,98.88
2022-07-26T21:14:35.146Z,98.77
2022-07-26T21:17:11.569Z,98.63
2022-07-26T21:19:44.477Z,98.64
2022-07-26T21:22:16.541Z,98.76
2022-07-26T21:24:50.298Z,98.81
2022-07-26T21:27:22.725Z,98.69
2022-07-26T21:29:55.235Z,98.81
2022-07-26T21:32:31.695Z,99.08
2022-07-26T21:35:04.768Z,99.43
2022-07-26T21:37:36.881Z,99.50
2022-07-26T21:40:11.252Z,99.78
2022-07-26T21:42:43.508Z,99.77
2022-07-26T21:45:15.582Z,99.77
2022-07-26T21:47:47.909Z,99.72
2022-07-26T21:50:20.394Z,99.92
2022-07-26T21:52:53.156Z,99.99
2022-07-26T21:55:25.485Z,99.92
2022-07-26T21:57:58.148Z,99.92
2022-07-26T22:00:31.162Z,100.00
2022-07-26T22:03:04.742Z,100.00
2022-07-26T22:05:42.756Z,100.00
2022-07-26T22:08:17.372Z,100.00
2022-07-26T22:10:50.325Z,100.00
2022-07-26T22:13:23.215Z,100.00
2022-07-26T22:15:55.458Z,100.00
2022-07-26T22:18:27.990Z,100.00
2022-07-26T22:21:01.180Z,100.00
2022-07-26T22:23:34.064Z,100.00
2022-07-26T22:26:08.144Z,100.00
2022-07-26T22:28:40.750Z,100.00
2022-07-26T22:31:13.203Z,100.00
2022-07-26T22:33:46.662Z,100.00
2022-07-26T22:36:19.378Z,100.00
2022-07-26T22:38:51.895Z,100.00
2022-07-26T22:41:24.658Z,100.00
2022-07-26T22:43:57.241Z,100.00
2022-07-26T22:46:29.816Z,100.00
2022-07-26T22:49:03.553Z,100.00
2022-07-26T22:51:35.782Z,100.00
2022-07-26T22:54:09.546Z,100.00
2022-07-26T22:56:42.506Z,100.00
2022-07-26T22:59:15.236Z,100.00
2022-07-26T23:01:47.667Z,100.00
2022-07-26T23:04:19.729Z,100.00
2022-07-26T23:06:54.921Z,100.00
2022-07-26T23:09:27.290Z,100.00
2022-07-26T23:12:01.007Z,100.00
2022-07-26T23:14:33.159Z,100.00
2022-07-26T23:17:06.111Z,100.00
2022-07-26T23:19:38.812Z,100.00
2022-07-26T23:22:11.920Z,100.00
2022-07-26T23:24:47.404Z,100.00
2022-07-26T23:27:20.255Z,100.00
2022-07-26T23:29:52.540Z,100.00
2022-07-26T23:32:25.122Z,100.00
2022-07-26T23:34:57.158Z,100.00
2022-07-26T23:37:29.586Z,100.00
2022-07-26T23:40:01.844Z,100.00
2022-07-26T23:42:34.700Z,100.00
2022-07-26T23:45:09.758Z,100.00
2022-07-26T23:47:42.143Z,100.00
2022-07-26T23:50:14.605Z,100.00
2022-07-26T23:52:47.359Z,100.00
2022-07-26T23:55:19.856Z,100.00
2022-07-26T23:57:51.733Z,100.00
